Lake Intervale, New Jersey
Current Conditions -  °F | °C
As of 3:53 AM on Saturday 20 Dec 2014 (Local Time) from KCDW Reporting Station
Overcast Overcast  
Wind Chill: 26°   Ceiling: 2500
Heat Index: 31°   Visibility: 10mi
Dew Point: 21°   Wind: 5mph
Humidity: 67%   Direction: 40°NE
Pressure: 30.22"   Gusts: NA
Location:  40.929°N, 74.4211°W
Report Text: KCDW 200853Z AUTO 04004KT 10SM OVC025 M01/M06 A3022 RMK AO2 SLP242 T10061061 53009 TSNO
Loading
Personal Weather Stations






























Interactive Weather Map New forecast layout! Learn more

10-Day Weather Forecast

Advertisements
Track Severe Weather on mobile